METAR AND TAF INFORMATION
METAR FOR LICC
ADDS - METARS form results

(1458 UTC 15 September 2019)
Data provider http://aviationweather.gov/metar/data/
 
METAR text: LICC 151450Z 13009KT 090V150 CAVOK 28/17 Q1020
Conditions at: LICC (CATANIA/FONTANAR, IT) observed 1450 UTC 15 September 2019
Temperature: 28.0°C (82°F)
Dewpoint: 17.0°C (63°F) [RH = 51%]
Pressure (altimeter): 30.12 inches Hg (1020.0 mb)
Winds: from the SE (130 degrees) at 10 MPH (9 knots; 4.6 m/s)
Visibility: 6 or more miles (10+ km)
Ceiling: ceiling and visibility are OK
Clouds: unknown
Weather: no significant weather observed at this time

METAR text: LICC 151420Z 12009KT 090V150 CAVOK 28/15 Q1021
Conditions at: LICC (CATANIA/FONTANAR, IT) observed 1420 UTC 15 September 2019
Temperature: 28.0°C (82°F)
Dewpoint: 15.0°C (59°F) [RH = 45%]
Pressure (altimeter): 30.15 inches Hg (1021.0 mb)
Winds: from the ESE (120 degrees) at 10 MPH (9 knots; 4.6 m/s)
Visibility: 6 or more miles (10+ km)
Ceiling: ceiling and visibility are OK
Clouds: unknown
Weather: no significant weather observed at this time

Forecast for: LICC (CATANIA/FONTANAR, IT)
Text: TAF LICC 151100Z 1512/1612 08012KT CAVOK
Forecast period: 1200 to 1700 UTC 15 September 2019
Forecast type: FROM: standard forecast or significant change
Winds: from the E (80 degrees) at 14 MPH (12 knots; 6.2 m/s)
Visibility: 6 or more miles 10+ km)
Ceiling: unknown
Clouds: missing
Weather: NSW  (no significant weather)
Text: BECMG 1517/1519 VRB05KT
Forecast period: 1700 UTC 15 September 2019 to 0800 UTC 16 September 2019
Forecast type: BECOMING: Conditions expected to become as follows by 1900 UTC 15 September 2019
Winds: variable direction winds at 6 MPH (5 knots; 2.6 m/s)
Visibility: 6 or more miles 10+ km)
Ceiling: unknown
Clouds: missing
Weather: NSW  (no significant weather)
Text: BECMG 1608/1610 08012KT
Forecast period: 0800 to 1200 UTC 16 September 2019
Forecast type: BECOMING: Conditions expected to become as follows by 1000 UTC 16 September 2019
Winds: from the E (80 degrees) at 14 MPH (12 knots; 6.2 m/s)
Visibility: 6 or more miles 10+ km)
Ceiling: unknown
Clouds: missing
Weather: NSW  (no significant weather)

 AIRPORT MAP

 RUNWAY INFORMATION
Runway 08 Runway length 7989 ft Runway width 148 ft
Runway elevation 37 ft Runway displaced threshold 312 ft Runway heading 84
Runway 26 Runway length 7989 ft Runway width 148 ft
Runway elevation 17 ft Runway displaced threshold 279 ft Runway heading 264

 AIRPORT FREQUENCIES
Type APP Name APP Frequency 119.25 MHZ
Type DIR Name DIRECTOR Frequency 120.8 MHZ
Type GND Name GND Frequency 129.725 MHZ
Type TWR Name TWR Frequency 118.7 MHZ

 AIRPORT NEAR NAVIGATION AIDS
Type NDB Name Catania Frequency 345 KHZ
Type VOR-DME Name Catania Fontanarossa Frequency 116250 KHZ
Type NDB Name Catania Fontanarossa Frequency 407 KHZ